Meteógrafos Informações Meteorológicas em tempo real
Aeroporto de Montes Claros
15-12-2019 22:56

Temperatura atual: 25 graus 77 F    Umidade relativa: 53 %
Velocidade do vento: 06 nós 10 Km/h    Direção: 140 graus SE
Ajuste do altímetro ..: 1018 HPA
Visibilidade: Ótima    Tempo presente: Céu Limpo

Observação
Data Hora BRTTempo°CUmidadePressãoVentoVisib.
15/12 - 22:56   Céu Limpo 25° 53% 1018 Sudeste/10 km/h OK
15/12 - 21:56   Céu Limpo 25° 57% 1018 Sudeste/10 km/h OK
15/12 - 20:56   Céu Limpo 27° 47% 1017 Este-sudeste/16 km/h OK
15/12 - 19:56   Céu Limpo 28° 42% 1017 Este-sudeste/12 km/h OK
15/12 - 18:56   Céu Limpo 29° 35% 1016 Leste/14 km/h OK
15/12 - 17:55   Céu Limpo 31° 31% 1016 Leste/19 km/h OK
15/12 - 16:56   Céu Limpo 31° 31% 1016 Leste/21 km/h OK
15/12 - 15:56   Céu Limpo 32° 27% 1016 Leste/19 km/h OK
15/12 - 14:56   Céu Limpo 32° 29% 1017 Leste/21 km/h OK
15/12 - 13:56   Céu Limpo 31° 33% 1018 Leste/19 km/h OK
15/12 - 12:56   Céu Limpo 30° 35% 1019 Leste/18 km/h OK
15/12 - 11:56   Não Disponível 29° 37% 1019 Leste/21 km/h 9999
15/12 - 10:56   Poucas nuvens esparsas 28° 42% 1020 Leste/19 km/h 9999
15/12 - 09:56   Poucas nuvens esparsas 26° 47% 1020 Este-nordeste/23 km/h 9999
15/12 - 08:56   Não Disponível 25° 53% 1020 Leste/25 km/h OK
15/12 - 07:56   Não Disponível 23° 60% 1019 Este-nordeste/19 km/h OK
15/12 - 06:56   Não Disponível 22° 68% 1019 Leste/9 km/h OK
15/12 - 05:56   Não Disponível 22° 68% 1018 Leste/14 km/h OK
15/12 - 04:56   ND ND° ND% ND /0 km/h ND
15/12 - 03:56   ND ND° ND% ND /0 km/h ND
15/12 - 02:56   ND ND° ND% ND /0 km/h ND
15/12 - 01:56   Céu Limpo 24° 61% 1017 Leste/5 km/h OK
15/12 - 00:56   Céu Limpo 24° 57% 1017 Leste/7 km/h OK
14/12 - 23:56   Céu Limpo 26° 47% 1017 Este-sudeste/10 km/h OK

Termo de Uso  |   Links Úteis  |   Imprensa  |  Anuncie  |  Fale Conosco  |  Versão Celular  |   Política de Privacidade

Apolo11.com - Todos os direitos reservados - 2000 - 2019

"Existem velas que iluminam tudo, menos o próprio candelabro" - Hebbel